| time (UTC) | temp F | wind direction | speed MPH | gust MPH | rain 1hr in | rain 24hr in | rain mn in | humidity % | barometer mb |
| 20260510203020 | 79 | 111 | 2.0 | 7.0 | 0.00 | 0.02 | 0.00 | 40 | 1015.4 |
| 20260510201514 | 80 | 160 | 2.0 | 9.0 | 0.00 | 0.02 | 0.00 | 53 | 1015.4 |
| 20260510200010 | 81 | 181 | 2.0 | 7.0 | 0.00 | 0.02 | 0.00 | 54 | 1015.4 |
| 20260510194505 | 81 | 131 | 1.0 | 7.0 | 0.00 | 0.02 | 0.00 | 52 | 1015.4 |
| 20260510193112 | 81 | 141 | 0.0 | 7.0 | 0.00 | 0.02 | 0.00 | 52 | 1015.6 |
| 20260510191600 | 81 | 139 | 0.0 | 7.0 | 0.00 | 0.02 | 0.00 | 52 | 1015.6 |
| 20260510190057 | 81 | 135 | 2.0 | 6.0 | 0.00 | 0.02 | 0.00 | 55 | 1015.9 |
| 20260510184548 | 82 | 150 | 3.0 | 8.0 | 0.00 | 0.02 | 0.00 | 52 | 1016.1 |
| 20260510183049 | 80 | 143 | 0.0 | 7.0 | 0.00 | 0.02 | 0.00 | 45 | 1016.2 |
| 20260510181540 | 80 | 117 | 1.0 | 6.0 | 0.00 | 0.02 | 0.00 | 52 | 1016.3 |
| 20260510180046 | 81 | 172 | 1.0 | 6.0 | 0.00 | 0.02 | 0.00 | 48 | 1016.4 |
| 20260510174530 | 81 | 209 | 1.0 | 8.0 | 0.00 | 0.03 | 0.00 | 50 | 1016.5 |
| 20260510173025 | 81 | 196 | 0.0 | 4.0 | 0.00 | 0.03 | 0.00 | 45 | 1016.6 |
| 20260510171521 | 79 | 159 | 0.0 | 8.0 | 0.00 | 0.03 | 0.00 | 37 | 1016.7 |
| 20260510170017 | 79 | 126 | 0.0 | 8.0 | 0.00 | 0.03 | 0.00 | 36 | 1016.7 |
| 20260510164521 | 79 | 139 | 0.0 | 8.0 | 0.00 | 0.06 | 0.00 | 26 | 1016.6 |
| 20260510163010 | 78 | 131 | 1.0 | 7.0 | 0.00 | 0.06 | 0.00 | 21 | 1016.6 |
| 20260510161503 | 77 | 152 | 3.0 | 8.0 | 0.00 | 0.06 | 0.00 | 29 | 1016.5 |
| 20260510160106 | 79 | 141 | 0.0 | 3.0 | 0.00 | 0.06 | 0.00 | 31 | 1016.6 |
| 20260510154608 | 80 | 128 | 0.0 | 1.0 | 0.00 | 0.15 | 0.00 | 9 | 1016.5 |
| 20260510153051 | 78 | 139 | 0.0 | 0.0 | 0.00 | 0.15 | 0.00 | 1 | 1016.6 |
| 20260510151545 | 76 | 50 | 0.0 | 1.0 | 0.00 | 0.15 | 0.00 | 1 | 1016.7 |
| 20260510150041 | 76 | 103 | 0.0 | 1.0 | 0.00 | 0.15 | 0.00 | 1 | 1016.5 |
| 20260510144537 | 77 | 96 | 0.0 | 1.0 | 0.00 | 0.15 | 0.00 | 1 | 1016.5 |
| 20260510143039 | 76 | 150 | 0.0 | 1.0 | 0.00 | 0.15 | 0.00 | 1 | 1016.6 |
| 20260510141527 | 74 | 270 | 0.0 | 1.0 | 0.00 | 0.15 | 0.00 | 1 | 1016.6 |
| 20260510140023 | 72 | 56 | 0.0 | 1.0 | 0.00 | 0.15 | 0.00 | 1 | 1016.6 |
| 20260510134518 | 72 | 78 | 0.0 | 0.0 | 0.00 | 0.15 | 0.00 | 1 | 1016.5 |
| 20260510133015 | 71 | 58 | 0.0 | 1.0 | 0.00 | 0.15 | 0.00 | 1 | 1016.4 |
| 20260510131509 | 72 | 55 | 0.0 | 0.0 | 0.00 | 0.15 | 0.00 | 1 | 1016.4 |
| 20260510130012 | 71 | 15 | 0.0 | 1.0 | 0.00 | 0.15 | 0.00 | 1 | 1016.1 |
| 20260510124613 | 70 | 32 | 0.0 | 1.0 | 0.00 | 0.15 | 0.00 | 1 | 1016.0 |
| 20260510123056 | 69 | 77 | 0.0 | 1.0 | 0.00 | 0.15 | 0.00 | 1 | 1015.6 |
| 20260510121552 | 69 | 81 | 0.0 | 1.0 | 0.00 | 0.15 | 0.00 | 1 | 1015.3 |
| 20260510120047 | 68 | 65 | 0.0 | 0.0 | 0.00 | 0.15 | 0.00 | 1 | 1015.3 |
| 20260510114544 | 0 | 0.0 | 0.0 | 0.00 | 0.15 | 0.00 | 1015.1 | ||
| 20260510113038 | 0 | 0.0 | 0.0 | 0.00 | 0.15 | 0.00 | 1014.9 | ||
| 20260510111557 | 0 | 0.0 | 0.0 | 0.00 | 0.15 | 0.00 | 1014.6 | ||
| 20260510110031 | 0 | 0.0 | 0.0 | 0.00 | 0.15 | 0.00 | 1014.5 | ||
| 20260510104537 | 0 | 0.0 | 0.0 | 0.00 | 0.15 | 0.00 | 1014.1 | ||
| 20260510103024 | 0 | 0.0 | 0.0 | 0.00 | 0.15 | 0.00 | 1014.0 | ||
| 20260510101518 | 0 | 0.0 | 0.0 | 0.00 | 0.15 | 0.00 | 1013.9 | ||
| 20260510100012 | 0 | 0.0 | 0.0 | 0.00 | 0.15 | 0.00 | 1013.9 | ||
| 20260510094508 | 0 | 0.0 | 0.0 | 0.00 | 0.15 | 0.00 | 1013.9 | ||
| 20260510093003 | 0 | 0.0 | 0.0 | 0.00 | 0.15 | 0.00 | 1013.7 | ||
| 20260510091605 | 0 | 0.0 | 0.0 | 0.00 | 0.15 | 0.00 | 1013.4 | ||
| 20260510090104 | 0 | 0.0 | 0.0 | 0.00 | 0.15 | 0.00 | 1013.4 | ||
| 20260510084557 | 69 | 60 | 0.0 | 0.0 | 0.00 | 0.17 | 0.00 | 1 | 1012.9 |
| 20260510083046 | 69 | 36 | 0.0 | 0.0 | 0.00 | 0.17 | 0.00 | 1 | 1012.7 |
| 20260510081545 | 69 | 137 | 0.0 | 0.0 | 0.00 | 0.17 | 0.00 | 1 | 1012.5 |
| 20260510053013 | 70 | 284 | 0.0 | 1.0 | 0.00 | 0.20 | 0.00 | 1 | 1013.4 |
| 20260510051510 | 70 | 325 | 0.0 | 0.0 | 0.00 | 0.20 | 0.00 | 1 | 1012.9 |
| 20260510050007 | 70 | 295 | 0.0 | 0.0 | 0.00 | 0.20 | 0.00 | 1 | 1012.8 |
| 20260510044507 | 70 | 117 | 0.0 | 0.0 | 0.00 | 0.21 | 0.20 | 1 | 1012.9 |
| 20260510043004 | 71 | 337 | 0.0 | 0.0 | 0.00 | 0.21 | 0.20 | 1 | 1013.4 |
| 20260510041503 | 71 | 337 | 0.0 | 0.0 | 0.00 | 0.21 | 0.20 | 1 | 1013.5 |
| 20260510040002 | 71 | 267 | 0.0 | 0.0 | 0.00 | 0.21 | 0.20 | 1 | 1013.5 |
| 20260510034502 | 71 | 267 | 0.0 | 0.0 | 0.00 | 0.22 | 0.20 | 1 | 1013.9 |
| 20260510033001 | 71 | 247 | 0.0 | 0.0 | 0.00 | 0.22 | 0.20 | 1 | 1013.7 |
| 20260510031501 | 71 | 212 | 0.0 | 0.0 | 0.00 | 0.22 | 0.20 | 1 | 1013.4 |
| 20260510030107 | 71 | 215 | 0.0 | 0.0 | 0.00 | 0.22 | 0.20 | 1 | 1013.4 |
| 20260510024600 | 71 | 129 | 0.0 | 0.0 | 0.00 | 0.23 | 0.20 | 1 | 1013.1 |
| 20260510023059 | 71 | 123 | 0.0 | 0.0 | 0.01 | 0.23 | 0.20 | 1 | 1012.7 |
| 20260510021559 | 71 | 171 | 0.0 | 1.0 | 0.01 | 0.23 | 0.20 | 1 | 1012.5 |
| 20260510020058 | 71 | 186 | 0.0 | 6.0 | 0.01 | 0.23 | 0.20 | 1 | 1012.6 |
| 20260510014559 | 71 | 214 | 0.0 | 2.0 | 0.01 | 0.23 | 0.20 | 1 | 1013.0 |
| 20260510013102 | 71 | 162 | 0.0 | 1.0 | 0.00 | 0.22 | 0.19 | 1 | 1013.3 |
| 20260510011557 | 71 | 159 | 0.0 | 0.0 | 0.00 | 0.22 | 0.19 | 1 | 1013.5 |
| 20260510010055 | 71 | 131 | 0.0 | 5.0 | 0.00 | 0.22 | 0.19 | 1 | 1013.3 |
| 20260510004555 | 71 | 139 | 5.0 | 13.0 | 0.00 | 0.26 | 0.19 | 1 | 1012.1 |
| 20260510003059 | 71 | 167 | 0.0 | 6.0 | 0.00 | 0.26 | 0.19 | 1 | 1012.2 |
| 20260510001554 | 71 | 143 | 1.0 | 10.0 | 0.01 | 0.26 | 0.19 | 1 | 1012.0 |
| 20260510000059 | 71 | 145 | 0.0 | 2.0 | 0.01 | 0.26 | 0.19 | 1 | 1012.1 |
| 20260509234605 | 71 | 167 | 0.0 | 1.0 | 0.01 | 0.30 | 0.19 | 1 | 1012.3 |
| 20260509233055 | 71 | 135 | 0.0 | 0.0 | 0.01 | 0.30 | 0.19 | 1 | 1012.3 |
| 20260509231603 | 71 | 143 | 0.0 | 0.0 | 0.00 | 0.28 | 0.18 | 1 | 1012.6 |
| 20260509230040 | 71 | 135 | 0.0 | 2.0 | 0.00 | 0.28 | 0.18 | 1 | 1012.4 |
| 20260509224637 | 71 | 164 | 0.0 | 0.0 | 0.00 | 0.28 | 0.18 | 1 | 1012.3 |
| 20260509223037 | 72 | 129 | 0.0 | 5.0 | 0.00 | 0.28 | 0.18 | 1 | 1012.1 |
| 20260509221535 | 72 | 143 | 0.0 | 6.0 | 0.00 | 0.28 | 0.18 | 1 | 1012.1 |
| 20260509220034 | 72 | 158 | 0.0 | 2.0 | 0.00 | 0.28 | 0.18 | 1 | 1012.0 |
| 20260509214527 | 72 | 163 | 0.0 | 1.0 | 0.00 | 0.28 | 0.18 | 1 | 1011.8 |
| 20260509213023 | 73 | 75 | 0.0 | 1.0 | 0.00 | 0.28 | 0.18 | 1 | 1012.3 |
| 20260509211518 | 73 | 210 | 0.0 | 1.0 | 0.00 | 0.28 | 0.18 | 1 | 1011.8 |
| 20260509210017 | 73 | 142 | 0.0 | 1.0 | 0.00 | 0.28 | 0.18 | 1 | 1011.8 |
| 20260509204509 | 73 | 162 | 2.0 | 14.0 | 0.00 | 0.28 | 0.18 | 1 | 1011.0 |